Bluff Dale, TX (76433)

6:02 PM CDT on April 19, 2015 (GMT -0500)
Mountain Lakes | | Change Station
CLOSE
Current Station
Personal Weather Station
Location: Bluff Dale, TX
Elevation: 1100 ft
Nearby Weather Stations

Elev 1100 ft 32.31 °N, 98.01 °W | Updated 12 seconds ago

Clear
Clear
76.1 °F
Feels Like 78 °F
N
5.0
Wind Variable Wind from North
Gusts 9.0 mph

Today
High -- | Low -- °F
--% Chance of Precip.
Yesterday
High -- | Low -- °F
Precip. -- in
6:58 AM 8:04 PM
New Moon, 2% visible
Pressure 29.81 in
Visibility 10.0 miles
Clouds Clear
Heat Index 78 °F
Dew Point 49 °F
Humidity 39%
Rainfall 0.00 in
Snow Depth Not available.
UV 3 out of 12
Pollen 9.80 out of 12
Air Quality Not available.
Flu Activity Local Activity
METAR KSEP 192235Z AUTO 29008G12KT 270V330 10SM CLR 25/05 A2981 RMK AO2 T02500053

More Conditions Fewer Conditions

Pressure 29.81 in
Visibility 10.0 miles
Clouds Clear
Heat Index 78 °F
Dew Point 49 °F
Humidity 39%
Rainfall 0.00 in
Snow Depth Not available.
UV 3 out of 12
Pollen 9.80 out of 12
Air Quality Not available.
Flu Activity Local Activity
METAR KSEP 192235Z AUTO 29008G12KT 270V330 10SM CLR 25/05 A2981 RMK AO2 T02500053

More Conditions Fewer Conditions

10-Day Weather Forecast

Almanac

Astronomy

Apr. 19, 2015 Rise Set
Actual Time
Civil Twilight
Nautical Twilight
Astronomical Twilight
Moon
Length of Visible Light
Length of Day
Tomorrow will be .
, % of the Moon is Illuminated

Today's Extremes

State Highs State Lows

Community

WunderPhotos

Upload Photos

1,815,012 photos uploaded!

WunderBlogs® & News

Nearby

Air Quality

  Air Quality AQ Index Pollutant
Not available.

Snow Depth

Station Depth Elevation

Earthquake Activity

City Distance Mag. Time & Date
Minimum magnitude displayed is 2.5.

Coastal Water Temperatures

Place Temperature

Stations

Nearby Weather Stations

Station Location Temp. Windchill Dew Point Humidity Wind Precip. Elev Updated Type